sensor_id;sensor_type;location;lat;lon;timestamp;temperature;humidity
23703;DHT22;12030;50.376;8.762;2024-03-29T00:01:57;6.00;99.90
23703;DHT22;12030;50.376;8.762;2024-03-29T00:04:23;6.00;99.90
23703;DHT22;12030;50.376;8.762;2024-03-29T00:06:48;6.00;99.90
23703;DHT22;12030;50.376;8.762;2024-03-29T00:09:14;6.00;99.90
23703;DHT22;12030;50.376;8.762;2024-03-29T00:11:39;6.00;99.90
23703;DHT22;12030;50.376;8.762;2024-03-29T00:14:05;6.00;99.90
23703;DHT22;12030;50.376;8.762;2024-03-29T00:16:30;5.80;99.90
23703;DHT22;12030;50.376;8.762;2024-03-29T00:18:56;5.80;99.90
23703;DHT22;12030;50.376;8.762;2024-03-29T00:21:21;5.80;99.90
23703;DHT22;12030;50.376;8.762;2024-03-29T00:23:47;5.80;99.90
23703;DHT22;12030;50.376;8.762;2024-03-29T00:26:13;5.80;99.90
23703;DHT22;12030;50.376;8.762;2024-03-29T00:28:39;5.70;99.90
23703;DHT22;12030;50.376;8.762;2024-03-29T00:31:04;5.60;99.90
23703;DHT22;12030;50.376;8.762;2024-03-29T00:33:30;5.70;99.90
23703;DHT22;12030;50.376;8.762;2024-03-29T00:35:56;5.60;99.90
23703;DHT22;12030;50.376;8.762;2024-03-29T00:38:21;5.60;99.90
23703;DHT22;12030;50.376;8.762;2024-03-29T00:40:47;5.60;99.90
23703;DHT22;12030;50.376;8.762;2024-03-29T00:43:13;5.60;99.90
23703;DHT22;12030;50.376;8.762;2024-03-29T00:45:38;5.60;99.90
23703;DHT22;12030;50.376;8.762;2024-03-29T00:48:04;5.60;99.90
23703;DHT22;12030;50.376;8.762;2024-03-29T00:50:30;5.60;99.90
23703;DHT22;12030;50.376;8.762;2024-03-29T00:52:55;5.60;99.90
23703;DHT22;12030;50.376;8.762;2024-03-29T00:55:21;5.50;99.90
23703;DHT22;12030;50.376;8.762;2024-03-29T00:57:47;5.50;99.90
23703;DHT22;12030;50.376;8.762;2024-03-29T01:00:12;5.50;99.90
23703;DHT22;12030;50.376;8.762;2024-03-29T01:02:38;5.50;99.90
23703;DHT22;12030;50.376;8.762;2024-03-29T01:05:04;5.50;99.90
23703;DHT22;12030;50.376;8.762;2024-03-29T01:07:29;5.50;99.90
23703;DHT22;12030;50.376;8.762;2024-03-29T01:09:55;5.60;99.90
23703;DHT22;12030;50.376;8.762;2024-03-29T01:12:20;5.60;99.90
23703;DHT22;12030;50.376;8.762;2024-03-29T01:14:46;5.60;99.90
23703;DHT22;12030;50.376;8.762;2024-03-29T01:17:11;5.50;99.90
23703;DHT22;12030;50.376;8.762;2024-03-29T01:19:37;5.50;99.90
23703;DHT22;12030;50.376;8.762;2024-03-29T01:22:03;5.60;99.90
23703;DHT22;12030;50.376;8.762;2024-03-29T01:24:29;5.60;99.90
23703;DHT22;12030;50.376;8.762;2024-03-29T01:26:55;5.70;99.90
23703;DHT22;12030;50.376;8.762;2024-03-29T01:29:20;5.70;99.90
23703;DHT22;12030;50.376;8.762;2024-03-29T01:31:46;5.80;99.90
23703;DHT22;12030;50.376;8.762;2024-03-29T01:34:11;5.80;99.90
23703;DHT22;12030;50.376;8.762;2024-03-29T01:36:37;5.90;99.90
23703;DHT22;12030;50.376;8.762;2024-03-29T01:39:02;5.90;99.90
23703;DHT22;12030;50.376;8.762;2024-03-29T01:41:29;5.90;99.90
23703;DHT22;12030;50.376;8.762;2024-03-29T01:43:54;6.00;99.90
23703;DHT22;12030;50.376;8.762;2024-03-29T01:46:22;6.00;99.90
23703;DHT22;12030;50.376;8.762;2024-03-29T01:48:49;6.00;99.90
23703;DHT22;12030;50.376;8.762;2024-03-29T01:51:15;6.00;99.90
23703;DHT22;12030;50.376;8.762;2024-03-29T01:53:42;6.00;99.90
23703;DHT22;12030;50.376;8.762;2024-03-29T01:56:08;6.10;99.90
23703;DHT22;12030;50.376;8.762;2024-03-29T01:58:34;6.10;99.90
23703;DHT22;12030;50.376;8.762;2024-03-29T02:01:00;6.10;99.90
23703;DHT22;12030;50.376;8.762;2024-03-29T02:03:27;6.20;99.90
23703;DHT22;12030;50.376;8.762;2024-03-29T02:05:53;6.20;99.90
23703;DHT22;12030;50.376;8.762;2024-03-29T02:08:18;6.20;99.90
23703;DHT22;12030;50.376;8.762;2024-03-29T02:10:47;6.30;99.90
23703;DHT22;12030;50.376;8.762;2024-03-29T02:13:13;6.40;99.90
23703;DHT22;12030;50.376;8.762;2024-03-29T02:15:41;6.50;99.90
23703;DHT22;12030;50.376;8.762;2024-03-29T02:18:07;6.40;99.90
23703;DHT22;12030;50.376;8.762;2024-03-29T02:20:34;6.30;99.90
23703;DHT22;12030;50.376;8.762;2024-03-29T02:23:11;6.30;99.90
23703;DHT22;12030;50.376;8.762;2024-03-29T02:25:37;6.30;99.90
23703;DHT22;12030;50.376;8.762;2024-03-29T02:28:03;6.30;99.90
23703;DHT22;12030;50.376;8.762;2024-03-29T02:30:31;6.20;99.90
23703;DHT22;12030;50.376;8.762;2024-03-29T02:32:58;6.20;99.90
23703;DHT22;12030;50.376;8.762;2024-03-29T02:35:24;6.20;99.90
23703;DHT22;12030;50.376;8.762;2024-03-29T02:37:50;6.20;99.90
23703;DHT22;12030;50.376;8.762;2024-03-29T02:40:15;6.20;99.90
23703;DHT22;12030;50.376;8.762;2024-03-29T02:42:41;6.20;99.90
23703;DHT22;12030;50.376;8.762;2024-03-29T02:45:07;6.20;99.90
23703;DHT22;12030;50.376;8.762;2024-03-29T02:47:33;6.30;99.90
23703;DHT22;12030;50.376;8.762;2024-03-29T02:49:59;6.30;99.90
23703;DHT22;12030;50.376;8.762;2024-03-29T02:52:24;6.30;99.90
23703;DHT22;12030;50.376;8.762;2024-03-29T02:54:50;6.40;99.90
23703;DHT22;12030;50.376;8.762;2024-03-29T02:57:15;6.40;99.90
23703;DHT22;12030;50.376;8.762;2024-03-29T02:59:41;6.50;99.90
23703;DHT22;12030;50.376;8.762;2024-03-29T03:02:07;6.60;99.90
23703;DHT22;12030;50.376;8.762;2024-03-29T03:04:33;6.60;99.90
23703;DHT22;12030;50.376;8.762;2024-03-29T03:06:59;6.60;99.90
23703;DHT22;12030;50.376;8.762;2024-03-29T03:09:44;6.70;99.90
23703;DHT22;12030;50.376;8.762;2024-03-29T03:12:31;6.70;99.90
23703;DHT22;12030;50.376;8.762;2024-03-29T03:14:57;6.80;99.90
23703;DHT22;12030;50.376;8.762;2024-03-29T03:17:25;6.80;99.90
23703;DHT22;12030;50.376;8.762;2024-03-29T03:19:51;6.90;99.90
23703;DHT22;12030;50.376;8.762;2024-03-29T03:22:17;7.00;99.90
23703;DHT22;12030;50.376;8.762;2024-03-29T03:24:43;7.00;99.90
23703;DHT22;12030;50.376;8.762;2024-03-29T03:27:08;7.00;99.90
23703;DHT22;12030;50.376;8.762;2024-03-29T03:29:34;7.10;99.90
23703;DHT22;12030;50.376;8.762;2024-03-29T03:31:59;7.10;99.90
23703;DHT22;12030;50.376;8.762;2024-03-29T03:34:25;7.20;99.90
23703;DHT22;12030;50.376;8.762;2024-03-29T03:36:50;7.20;99.90
23703;DHT22;12030;50.376;8.762;2024-03-29T03:39:16;7.30;99.90
23703;DHT22;12030;50.376;8.762;2024-03-29T03:41:41;7.30;99.90
23703;DHT22;12030;50.376;8.762;2024-03-29T03:44:07;7.40;99.90
23703;DHT22;12030;50.376;8.762;2024-03-29T03:46:32;7.30;99.90
23703;DHT22;12030;50.376;8.762;2024-03-29T03:48:58;7.40;99.90
23703;DHT22;12030;50.376;8.762;2024-03-29T03:51:23;7.40;99.90
23703;DHT22;12030;50.376;8.762;2024-03-29T03:53:49;7.30;99.90
23703;DHT22;12030;50.376;8.762;2024-03-29T03:56:15;7.30;99.90
23703;DHT22;12030;50.376;8.762;2024-03-29T03:58:41;7.30;99.90
23703;DHT22;12030;50.376;8.762;2024-03-29T04:01:09;7.30;99.90
23703;DHT22;12030;50.376;8.762;2024-03-29T04:03:34;7.30;99.90
23703;DHT22;12030;50.376;8.762;2024-03-29T04:06:03;7.30;99.90
23703;DHT22;12030;50.376;8.762;2024-03-29T04:08:28;7.40;99.90
23703;DHT22;12030;50.376;8.762;2024-03-29T04:10:54;7.30;99.90
23703;DHT22;12030;50.376;8.762;2024-03-29T04:13:19;7.40;99.90
23703;DHT22;12030;50.376;8.762;2024-03-29T04:15:45;7.40;99.90
23703;DHT22;12030;50.376;8.762;2024-03-29T04:18:10;7.40;99.90
23703;DHT22;12030;50.376;8.762;2024-03-29T04:20:36;7.50;99.90
23703;DHT22;12030;50.376;8.762;2024-03-29T04:23:04;7.50;99.90
23703;DHT22;12030;50.376;8.762;2024-03-29T04:25:30;7.50;99.90
23703;DHT22;12030;50.376;8.762;2024-03-29T04:27:55;7.50;99.90
23703;DHT22;12030;50.376;8.762;2024-03-29T04:30:21;7.50;99.90
23703;DHT22;12030;50.376;8.762;2024-03-29T04:32:46;7.50;99.90
23703;DHT22;12030;50.376;8.762;2024-03-29T04:35:12;7.40;99.90
23703;DHT22;12030;50.376;8.762;2024-03-29T04:37:37;7.40;99.90
23703;DHT22;12030;50.376;8.762;2024-03-29T04:40:03;7.40;99.90
23703;DHT22;12030;50.376;8.762;2024-03-29T04:42:29;7.40;99.90
23703;DHT22;12030;50.376;8.762;2024-03-29T04:44:54;7.40;99.90
23703;DHT22;12030;50.376;8.762;2024-03-29T04:47:20;7.40;99.90
23703;DHT22;12030;50.376;8.762;2024-03-29T04:49:45;7.40;99.90
23703;DHT22;12030;50.376;8.762;2024-03-29T04:52:11;7.40;99.90
23703;DHT22;12030;50.376;8.762;2024-03-29T04:54:36;7.40;99.90
23703;DHT22;12030;50.376;8.762;2024-03-29T04:57:02;7.40;99.90
23703;DHT22;12030;50.376;8.762;2024-03-29T04:59:31;7.50;99.90
23703;DHT22;12030;50.376;8.762;2024-03-29T05:01:58;7.60;99.90
23703;DHT22;12030;50.376;8.762;2024-03-29T05:04:24;7.60;99.90
23703;DHT22;12030;50.376;8.762;2024-03-29T05:06:57;7.50;99.90
23703;DHT22;12030;50.376;8.762;2024-03-29T05:09:26;7.50;99.90
23703;DHT22;12030;50.376;8.762;2024-03-29T05:11:52;7.50;99.90
23703;DHT22;12030;50.376;8.762;2024-03-29T05:14:20;7.50;99.90
23703;DHT22;12030;50.376;8.762;2024-03-29T05:16:46;7.50;99.90
23703;DHT22;12030;50.376;8.762;2024-03-29T05:19:12;7.60;99.90
23703;DHT22;12030;50.376;8.762;2024-03-29T05:21:38;7.40;99.90
23703;DHT22;12030;50.376;8.762;2024-03-29T05:24:05;7.40;99.90
23703;DHT22;12030;50.376;8.762;2024-03-29T05:26:30;7.30;99.90
23703;DHT22;12030;50.376;8.762;2024-03-29T05:28:56;7.20;99.90
23703;DHT22;12030;50.376;8.762;2024-03-29T05:31:23;7.20;99.90
23703;DHT22;12030;50.376;8.762;2024-03-29T05:33:49;7.20;99.90
23703;DHT22;12030;50.376;8.762;2024-03-29T05:36:14;7.20;99.90
23703;DHT22;12030;50.376;8.762;2024-03-29T05:38:40;7.20;99.90
23703;DHT22;12030;50.376;8.762;2024-03-29T05:41:06;7.30;99.90
23703;DHT22;12030;50.376;8.762;2024-03-29T05:43:32;7.30;99.90
23703;DHT22;12030;50.376;8.762;2024-03-29T05:45:57;7.30;99.90
23703;DHT22;12030;50.376;8.762;2024-03-29T05:48:23;7.30;99.90
23703;DHT22;12030;50.376;8.762;2024-03-29T05:50:49;7.30;99.90
23703;DHT22;12030;50.376;8.762;2024-03-29T05:53:14;7.30;99.90
23703;DHT22;12030;50.376;8.762;2024-03-29T05:55:40;7.20;99.90
23703;DHT22;12030;50.376;8.762;2024-03-29T05:58:05;7.30;99.90
23703;DHT22;12030;50.376;8.762;2024-03-29T06:00:32;7.30;99.90
23703;DHT22;12030;50.376;8.762;2024-03-29T06:03:00;7.30;99.90
23703;DHT22;12030;50.376;8.762;2024-03-29T06:05:28;7.30;99.90
23703;DHT22;12030;50.376;8.762;2024-03-29T06:07:53;7.30;99.90
23703;DHT22;12030;50.376;8.762;2024-03-29T06:10:19;7.40;99.90
23703;DHT22;12030;50.376;8.762;2024-03-29T06:12:44;7.50;99.90
23703;DHT22;12030;50.376;8.762;2024-03-29T06:15:10;7.40;99.90
23703;DHT22;12030;50.376;8.762;2024-03-29T06:17:54;7.40;99.90
23703;DHT22;12030;50.376;8.762;2024-03-29T06:20:20;7.40;99.90
23703;DHT22;12030;50.376;8.762;2024-03-29T06:22:45;7.40;99.90
23703;DHT22;12030;50.376;8.762;2024-03-29T06:25:11;7.40;99.90
23703;DHT22;12030;50.376;8.762;2024-03-29T06:27:37;7.50;99.90
23703;DHT22;12030;50.376;8.762;2024-03-29T06:30:04;7.50;99.90
23703;DHT22;12030;50.376;8.762;2024-03-29T06:32:33;7.60;99.90
23703;DHT22;12030;50.376;8.762;2024-03-29T06:34:59;7.50;99.90
23703;DHT22;12030;50.376;8.762;2024-03-29T06:37:25;7.60;99.90
23703;DHT22;12030;50.376;8.762;2024-03-29T06:39:52;7.60;99.90
23703;DHT22;12030;50.376;8.762;2024-03-29T06:42:17;7.60;99.90
23703;DHT22;12030;50.376;8.762;2024-03-29T06:44:43;7.60;99.90
23703;DHT22;12030;50.376;8.762;2024-03-29T06:47:09;7.60;99.90
23703;DHT22;12030;50.376;8.762;2024-03-29T06:49:35;7.60;99.90
23703;DHT22;12030;50.376;8.762;2024-03-29T06:52:01;7.60;99.90
23703;DHT22;12030;50.376;8.762;2024-03-29T06:54:30;7.60;99.90
23703;DHT22;12030;50.376;8.762;2024-03-29T06:56:56;7.60;99.90
23703;DHT22;12030;50.376;8.762;2024-03-29T06:59:23;7.70;99.90
23703;DHT22;12030;50.376;8.762;2024-03-29T07:01:49;7.70;99.90
23703;DHT22;12030;50.376;8.762;2024-03-29T07:04:24;7.80;99.90
23703;DHT22;12030;50.376;8.762;2024-03-29T07:06:50;7.80;99.90
23703;DHT22;12030;50.376;8.762;2024-03-29T07:09:20;7.90;99.90
23703;DHT22;12030;50.376;8.762;2024-03-29T07:11:47;7.90;99.90
23703;DHT22;12030;50.376;8.762;2024-03-29T07:14:14;7.80;99.90
23703;DHT22;12030;50.376;8.762;2024-03-29T07:16:40;7.80;99.90
23703;DHT22;12030;50.376;8.762;2024-03-29T07:19:05;7.90;99.90
23703;DHT22;12030;50.376;8.762;2024-03-29T07:21:31;7.90;99.90
23703;DHT22;12030;50.376;8.762;2024-03-29T07:23:57;7.90;99.90
23703;DHT22;12030;50.376;8.762;2024-03-29T07:26:22;8.00;99.90
23703;DHT22;12030;50.376;8.762;2024-03-29T07:28:48;8.00;99.90
23703;DHT22;12030;50.376;8.762;2024-03-29T07:31:14;8.00;99.90
23703;DHT22;12030;50.376;8.762;2024-03-29T07:33:39;8.00;99.90
23703;DHT22;12030;50.376;8.762;2024-03-29T07:36:05;8.00;99.90
23703;DHT22;12030;50.376;8.762;2024-03-29T07:38:31;8.10;99.90
23703;DHT22;12030;50.376;8.762;2024-03-29T07:40:57;8.20;99.90
23703;DHT22;12030;50.376;8.762;2024-03-29T07:43:22;8.20;99.90
23703;DHT22;12030;50.376;8.762;2024-03-29T07:45:48;8.30;99.90
23703;DHT22;12030;50.376;8.762;2024-03-29T07:48:16;8.30;99.90
23703;DHT22;12030;50.376;8.762;2024-03-29T07:50:46;8.40;99.90
23703;DHT22;12030;50.376;8.762;2024-03-29T07:53:12;8.40;99.90
23703;DHT22;12030;50.376;8.762;2024-03-29T07:55:38;8.40;99.90
23703;DHT22;12030;50.376;8.762;2024-03-29T07:58:05;8.50;99.90
23703;DHT22;12030;50.376;8.762;2024-03-29T08:00:34;8.50;99.90
23703;DHT22;12030;50.376;8.762;2024-03-29T08:03:00;8.50;99.90
23703;DHT22;12030;50.376;8.762;2024-03-29T08:05:26;8.70;99.90
23703;DHT22;12030;50.376;8.762;2024-03-29T08:07:52;8.70;99.90
23703;DHT22;12030;50.376;8.762;2024-03-29T08:10:18;8.80;99.90
23703;DHT22;12030;50.376;8.762;2024-03-29T08:12:43;8.80;99.90
23703;DHT22;12030;50.376;8.762;2024-03-29T08:15:09;8.90;99.90
23703;DHT22;12030;50.376;8.762;2024-03-29T08:17:36;9.00;99.90
23703;DHT22;12030;50.376;8.762;2024-03-29T08:20:01;9.00;99.90
23703;DHT22;12030;50.376;8.762;2024-03-29T08:22:28;9.10;99.90
23703;DHT22;12030;50.376;8.762;2024-03-29T08:24:54;9.20;99.90
23703;DHT22;12030;50.376;8.762;2024-03-29T08:27:20;9.20;99.90
23703;DHT22;12030;50.376;8.762;2024-03-29T08:29:45;9.20;99.90
23703;DHT22;12030;50.376;8.762;2024-03-29T08:32:11;9.30;99.90
23703;DHT22;12030;50.376;8.762;2024-03-29T08:34:37;9.40;99.90
23703;DHT22;12030;50.376;8.762;2024-03-29T08:37:03;9.40;99.90
23703;DHT22;12030;50.376;8.762;2024-03-29T08:39:31;9.40;99.90
23703;DHT22;12030;50.376;8.762;2024-03-29T08:42:00;9.40;99.90
23703;DHT22;12030;50.376;8.762;2024-03-29T08:44:31;9.40;99.90
23703;DHT22;12030;50.376;8.762;2024-03-29T08:46:56;9.50;99.90
23703;DHT22;12030;50.376;8.762;2024-03-29T08:49:24;9.50;99.90
23703;DHT22;12030;50.376;8.762;2024-03-29T08:51:49;9.50;99.90
23703;DHT22;12030;50.376;8.762;2024-03-29T08:54:15;9.50;99.90
23703;DHT22;12030;50.376;8.762;2024-03-29T08:56:40;9.50;99.90
23703;DHT22;12030;50.376;8.762;2024-03-29T08:59:06;9.50;99.90
23703;DHT22;12030;50.376;8.762;2024-03-29T09:01:36;9.50;99.90
23703;DHT22;12030;50.376;8.762;2024-03-29T09:04:02;9.60;99.90
23703;DHT22;12030;50.376;8.762;2024-03-29T09:06:28;9.60;99.90
23703;DHT22;12030;50.376;8.762;2024-03-29T09:08:54;9.70;99.90
23703;DHT22;12030;50.376;8.762;2024-03-29T09:11:19;9.70;99.90
23703;DHT22;12030;50.376;8.762;2024-03-29T09:13:45;9.70;99.90
23703;DHT22;12030;50.376;8.762;2024-03-29T09:16:10;9.70;99.90
23703;DHT22;12030;50.376;8.762;2024-03-29T09:18:36;9.80;99.90
23703;DHT22;12030;50.376;8.762;2024-03-29T09:21:01;9.80;99.90
23703;DHT22;12030;50.376;8.762;2024-03-29T09:23:28;9.80;99.90
23703;DHT22;12030;50.376;8.762;2024-03-29T09:25:54;9.80;99.90
23703;DHT22;12030;50.376;8.762;2024-03-29T09:28:21;9.80;99.90
23703;DHT22;12030;50.376;8.762;2024-03-29T09:30:47;9.90;99.90
23703;DHT22;12030;50.376;8.762;2024-03-29T09:33:13;9.90;99.90
23703;DHT22;12030;50.376;8.762;2024-03-29T09:35:38;9.90;99.90
23703;DHT22;12030;50.376;8.762;2024-03-29T09:38:04;10.00;99.90
23703;DHT22;12030;50.376;8.762;2024-03-29T09:40:31;10.00;99.90
23703;DHT22;12030;50.376;8.762;2024-03-29T09:43:00;10.10;99.90
23703;DHT22;12030;50.376;8.762;2024-03-29T09:45:37;10.10;99.90
23703;DHT22;12030;50.376;8.762;2024-03-29T09:48:04;10.20;99.90
23703;DHT22;12030;50.376;8.762;2024-03-29T09:50:31;10.40;99.90
23703;DHT22;12030;50.376;8.762;2024-03-29T09:52:58;10.50;99.90
23703;DHT22;12030;50.376;8.762;2024-03-29T09:55:23;10.60;99.90
23703;DHT22;12030;50.376;8.762;2024-03-29T09:57:50;10.70;99.90
23703;DHT22;12030;50.376;8.762;2024-03-29T10:00:16;10.80;99.90
23703;DHT22;12030;50.376;8.762;2024-03-29T10:02:43;10.80;99.90
23703;DHT22;12030;50.376;8.762;2024-03-29T10:05:10;10.80;99.90
23703;DHT22;12030;50.376;8.762;2024-03-29T10:07:36;10.90;99.90
23703;DHT22;12030;50.376;8.762;2024-03-29T10:10:04;10.90;99.90
23703;DHT22;12030;50.376;8.762;2024-03-29T10:12:30;10.90;99.90
23703;DHT22;12030;50.376;8.762;2024-03-29T10:14:56;10.80;99.90
23703;DHT22;12030;50.376;8.762;2024-03-29T10:17:31;10.80;99.90
23703;DHT22;12030;50.376;8.762;2024-03-29T10:20:04;10.80;99.90
23703;DHT22;12030;50.376;8.762;2024-03-29T10:22:35;10.90;99.90
23703;DHT22;12030;50.376;8.762;2024-03-29T10:25:01;11.00;99.90
23703;DHT22;12030;50.376;8.762;2024-03-29T10:27:26;11.00;99.90
23703;DHT22;12030;50.376;8.762;2024-03-29T10:29:53;11.00;99.90
23703;DHT22;12030;50.376;8.762;2024-03-29T10:32:19;11.00;99.90
23703;DHT22;12030;50.376;8.762;2024-03-29T10:34:45;10.90;99.90
23703;DHT22;12030;50.376;8.762;2024-03-29T10:37:10;10.90;99.90
23703;DHT22;12030;50.376;8.762;2024-03-29T10:39:36;10.80;99.90
23703;DHT22;12030;50.376;8.762;2024-03-29T10:42:02;10.80;99.90
23703;DHT22;12030;50.376;8.762;2024-03-29T10:44:29;10.80;99.90
23703;DHT22;12030;50.376;8.762;2024-03-29T10:46:56;10.80;99.90
23703;DHT22;12030;50.376;8.762;2024-03-29T10:49:23;10.80;99.90
23703;DHT22;12030;50.376;8.762;2024-03-29T10:51:50;10.90;99.90
23703;DHT22;12030;50.376;8.762;2024-03-29T10:54:16;11.00;99.90
23703;DHT22;12030;50.376;8.762;2024-03-29T10:56:43;11.00;99.90
23703;DHT22;12030;50.376;8.762;2024-03-29T10:59:21;11.10;99.90
23703;DHT22;12030;50.376;8.762;2024-03-29T11:01:51;11.00;99.90
23703;DHT22;12030;50.376;8.762;2024-03-29T11:04:22;11.10;99.90
23703;DHT22;12030;50.376;8.762;2024-03-29T11:06:51;11.10;99.90
23703;DHT22;12030;50.376;8.762;2024-03-29T11:09:19;11.20;99.90
23703;DHT22;12030;50.376;8.762;2024-03-29T11:11:48;11.20;99.90
23703;DHT22;12030;50.376;8.762;2024-03-29T11:14:20;11.20;99.90
23703;DHT22;12030;50.376;8.762;2024-03-29T11:16:47;11.30;99.90
23703;DHT22;12030;50.376;8.762;2024-03-29T11:19:14;11.20;99.90
23703;DHT22;12030;50.376;8.762;2024-03-29T11:21:41;11.10;99.90
23703;DHT22;12030;50.376;8.762;2024-03-29T11:24:09;11.20;99.90
23703;DHT22;12030;50.376;8.762;2024-03-29T11:26:35;11.20;99.90
23703;DHT22;12030;50.376;8.762;2024-03-29T11:29:01;11.30;99.90
23703;DHT22;12030;50.376;8.762;2024-03-29T11:31:27;11.30;99.90
23703;DHT22;12030;50.376;8.762;2024-03-29T11:33:53;11.30;99.90
23703;DHT22;12030;50.376;8.762;2024-03-29T11:36:23;11.20;99.90
23703;DHT22;12030;50.376;8.762;2024-03-29T11:38:54;11.30;99.90
23703;DHT22;12030;50.376;8.762;2024-03-29T11:41:25;11.10;99.90
23703;DHT22;12030;50.376;8.762;2024-03-29T11:43:53;11.00;99.90
23703;DHT22;12030;50.376;8.762;2024-03-29T11:46:19;11.00;99.90
23703;DHT22;12030;50.376;8.762;2024-03-29T11:48:45;10.90;99.90
23703;DHT22;12030;50.376;8.762;2024-03-29T11:51:16;10.90;99.90
23703;DHT22;12030;50.376;8.762;2024-03-29T11:53:44;11.00;99.90
23703;DHT22;12030;50.376;8.762;2024-03-29T11:56:10;11.10;99.90
23703;DHT22;12030;50.376;8.762;2024-03-29T11:58:40;11.10;99.90
23703;DHT22;12030;50.376;8.762;2024-03-29T12:01:06;11.00;99.90
23703;DHT22;12030;50.376;8.762;2024-03-29T12:03:38;10.90;99.90
23703;DHT22;12030;50.376;8.762;2024-03-29T12:06:03;10.90;99.90
23703;DHT22;12030;50.376;8.762;2024-03-29T12:08:32;10.90;99.90
23703;DHT22;12030;50.376;8.762;2024-03-29T12:11:02;10.90;99.90
23703;DHT22;12030;50.376;8.762;2024-03-29T12:13:29;10.90;99.90
23703;DHT22;12030;50.376;8.762;2024-03-29T12:15:55;10.90;99.90
23703;DHT22;12030;50.376;8.762;2024-03-29T12:18:22;10.80;99.90
23703;DHT22;12030;50.376;8.762;2024-03-29T12:20:49;10.90;99.90
23703;DHT22;12030;50.376;8.762;2024-03-29T12:23:20;10.90;99.90
23703;DHT22;12030;50.376;8.762;2024-03-29T12:25:47;11.00;99.90
23703;DHT22;12030;50.376;8.762;2024-03-29T12:28:14;10.90;99.90
23703;DHT22;12030;50.376;8.762;2024-03-29T12:30:42;11.00;99.90
23703;DHT22;12030;50.376;8.762;2024-03-29T12:33:18;11.00;99.90
23703;DHT22;12030;50.376;8.762;2024-03-29T12:35:48;10.90;99.90
23703;DHT22;12030;50.376;8.762;2024-03-29T12:38:16;10.90;99.90
23703;DHT22;12030;50.376;8.762;2024-03-29T12:40:43;10.90;99.90
23703;DHT22;12030;50.376;8.762;2024-03-29T12:43:10;10.90;99.90
23703;DHT22;12030;50.376;8.762;2024-03-29T12:45:40;10.90;99.90
23703;DHT22;12030;50.376;8.762;2024-03-29T12:48:16;10.90;99.90
23703;DHT22;12030;50.376;8.762;2024-03-29T12:50:43;10.90;99.90
23703;DHT22;12030;50.376;8.762;2024-03-29T12:53:11;10.90;99.90
23703;DHT22;12030;50.376;8.762;2024-03-29T12:55:42;10.90;99.90
23703;DHT22;12030;50.376;8.762;2024-03-29T12:58:14;10.90;99.90
23703;DHT22;12030;50.376;8.762;2024-03-29T13:00:41;11.00;99.90
23703;DHT22;12030;50.376;8.762;2024-03-29T13:03:07;10.90;99.90
23703;DHT22;12030;50.376;8.762;2024-03-29T13:05:38;10.90;99.90
23703;DHT22;12030;50.376;8.762;2024-03-29T13:08:08;10.90;99.90
23703;DHT22;12030;50.376;8.762;2024-03-29T13:10:39;10.90;99.90
23703;DHT22;12030;50.376;8.762;2024-03-29T13:13:06;10.90;99.90
23703;DHT22;12030;50.376;8.762;2024-03-29T13:15:36;10.90;99.90
23703;DHT22;12030;50.376;8.762;2024-03-29T13:18:03;10.90;99.90
23703;DHT22;12030;50.376;8.762;2024-03-29T13:20:30;10.90;99.90
23703;DHT22;12030;50.376;8.762;2024-03-29T13:22:56;10.90;99.90
23703;DHT22;12030;50.376;8.762;2024-03-29T13:25:23;10.90;99.90
23703;DHT22;12030;50.376;8.762;2024-03-29T13:27:54;10.90;99.90
23703;DHT22;12030;50.376;8.762;2024-03-29T13:30:25;10.90;99.90
23703;DHT22;12030;50.376;8.762;2024-03-29T13:32:51;10.80;99.90
23703;DHT22;12030;50.376;8.762;2024-03-29T13:35:17;10.90;99.90
23703;DHT22;12030;50.376;8.762;2024-03-29T13:37:47;11.00;99.90
23703;DHT22;12030;50.376;8.762;2024-03-29T13:40:13;11.00;99.90
23703;DHT22;12030;50.376;8.762;2024-03-29T13:42:40;11.10;99.90
23703;DHT22;12030;50.376;8.762;2024-03-29T13:45:07;11.10;99.90
23703;DHT22;12030;50.376;8.762;2024-03-29T13:47:34;11.20;99.90
23703;DHT22;12030;50.376;8.762;2024-03-29T13:49:59;11.20;99.90
23703;DHT22;12030;50.376;8.762;2024-03-29T13:52:25;11.30;99.90
23703;DHT22;12030;50.376;8.762;2024-03-29T13:54:53;11.30;99.90
23703;DHT22;12030;50.376;8.762;2024-03-29T13:57:19;11.30;99.90
23703;DHT22;12030;50.376;8.762;2024-03-29T13:59:45;11.30;99.90
23703;DHT22;12030;50.376;8.762;2024-03-29T14:02:17;11.40;99.90
23703;DHT22;12030;50.376;8.762;2024-03-29T14:04:44;11.40;99.90
23703;DHT22;12030;50.376;8.762;2024-03-29T14:07:11;11.50;99.90
23703;DHT22;12030;50.376;8.762;2024-03-29T14:09:38;11.50;99.90
23703;DHT22;12030;50.376;8.762;2024-03-29T14:12:04;11.60;99.90
23703;DHT22;12030;50.376;8.762;2024-03-29T14:14:30;11.60;99.90
23703;DHT22;12030;50.376;8.762;2024-03-29T14:16:56;11.70;99.90
23703;DHT22;12030;50.376;8.762;2024-03-29T14:19:22;11.70;99.90
23703;DHT22;12030;50.376;8.762;2024-03-29T14:21:47;11.70;99.90
23703;DHT22;12030;50.376;8.762;2024-03-29T14:24:13;11.80;99.90
23703;DHT22;12030;50.376;8.762;2024-03-29T14:26:38;11.80;99.90
23703;DHT22;12030;50.376;8.762;2024-03-29T14:29:04;11.70;99.90
23703;DHT22;12030;50.376;8.762;2024-03-29T14:31:32;11.70;99.90
23703;DHT22;12030;50.376;8.762;2024-03-29T14:33:58;11.70;99.90
23703;DHT22;12030;50.376;8.762;2024-03-29T14:36:23;11.70;99.90
23703;DHT22;12030;50.376;8.762;2024-03-29T14:38:49;11.70;99.90
23703;DHT22;12030;50.376;8.762;2024-03-29T14:41:15;11.70;99.90
23703;DHT22;12030;50.376;8.762;2024-03-29T14:43:41;11.70;99.90
23703;DHT22;12030;50.376;8.762;2024-03-29T14:46:06;11.70;99.90
23703;DHT22;12030;50.376;8.762;2024-03-29T14:48:32;11.70;99.90
23703;DHT22;12030;50.376;8.762;2024-03-29T14:50:57;11.70;99.90
23703;DHT22;12030;50.376;8.762;2024-03-29T14:53:24;11.70;99.90
23703;DHT22;12030;50.376;8.762;2024-03-29T14:55:49;11.70;99.90
23703;DHT22;12030;50.376;8.762;2024-03-29T14:58:15;11.70;99.90
23703;DHT22;12030;50.376;8.762;2024-03-29T15:00:40;11.70;99.90
23703;DHT22;12030;50.376;8.762;2024-03-29T15:03:09;11.70;99.90
23703;DHT22;12030;50.376;8.762;2024-03-29T15:05:34;11.60;99.90
23703;DHT22;12030;50.376;8.762;2024-03-29T15:08:01;11.70;99.90
23703;DHT22;12030;50.376;8.762;2024-03-29T15:10:26;11.60;99.90
23703;DHT22;12030;50.376;8.762;2024-03-29T15:13:01;11.70;99.90
23703;DHT22;12030;50.376;8.762;2024-03-29T15:15:27;11.70;99.90
23703;DHT22;12030;50.376;8.762;2024-03-29T15:17:52;11.60;99.90
23703;DHT22;12030;50.376;8.762;2024-03-29T15:20:18;11.70;99.90
23703;DHT22;12030;50.376;8.762;2024-03-29T15:22:43;11.70;99.90
23703;DHT22;12030;50.376;8.762;2024-03-29T15:25:15;11.70;99.90
23703;DHT22;12030;50.376;8.762;2024-03-29T15:27:41;11.70;99.90
23703;DHT22;12030;50.376;8.762;2024-03-29T15:30:32;11.70;99.90
23703;DHT22;12030;50.376;8.762;2024-03-29T15:33:01;11.70;99.90
23703;DHT22;12030;50.376;8.762;2024-03-29T15:35:27;11.70;99.90
23703;DHT22;12030;50.376;8.762;2024-03-29T15:37:53;11.70;99.90